Time;durP1;ratioP1;P1;durP2;ratioP2;P2;SDS_P1;SDS_P2;PMS_P1;PMS_P2;Temp;Humidity;BMP_temperature;BMP_pressure;BME280_temperature;BME280_humidity;BME280_pressure;Samples;Min_cycle;Max_cycle;Signal;HPM_P1;HPM_P2
2021/07/20 00:01:35;;;;;;;6.43;3.80;;;;;;;15.40;68.81;102044.50;3570139;40;20233;-80
2021/07/20 00:04:00;;;;;;;4.97;4.03;;;;;;;15.35;68.97;102040.09;3570279;40;20530;-78
2021/07/20 00:06:26;;;;;;;7.23;4.20;;;;;;;15.39;69.27;102042.78;3569896;40;20234;-80
2021/07/20 00:08:51;;;;;;;6.20;3.60;;;;;;;15.34;69.32;102039.22;3562433;40;20276;-79
2021/07/20 00:11:16;;;;;;;5.90;3.83;;;;;;;15.35;69.15;102037.50;3568159;40;20250;-79
2021/07/20 00:13:42;;;;;;;6.80;3.80;;;;;;;15.26;69.37;102032.13;3566688;40;20639;-80
2021/07/20 00:16:07;;;;;;;5.07;3.60;;;;;;;15.15;69.42;102038.81;3564175;40;20246;-79
2021/07/20 00:18:35;;;;;;;4.90;3.23;;;;;;;15.13;70.31;102037.88;3564142;40;20613;-80
2021/07/20 00:21:06;;;;;;;4.60;3.30;;;;;;;15.08;70.12;102037.81;3564900;40;20546;-80
2021/07/20 00:23:32;;;;;;;4.60;3.10;;;;;;;15.11;70.63;102039.59;3564669;40;20258;-79
2021/07/20 00:25:57;;;;;;;6.53;3.90;;;;;;;15.08;70.19;102039.50;3561951;40;20257;-79
2021/07/20 00:28:23;;;;;;;5.43;3.57;;;;;;;15.11;70.10;102047.31;3566666;40;20505;-79
2021/07/20 00:30:48;;;;;;;5.87;3.87;;;;;;;15.08;70.59;102045.56;3562559;40;20223;-79
2021/07/20 00:33:14;;;;;;;7.47;3.80;;;;;;;14.98;70.47;102042.75;3562138;40;20252;-79
2021/07/20 00:35:41;;;;;;;7.97;3.93;;;;;;;14.88;70.42;102036.50;3568408;40;20576;-80
2021/07/20 00:38:06;;;;;;;5.72;3.70;;;;;;;14.88;70.93;102043.41;3566244;40;20643;-79
2021/07/20 00:40:33;;;;;;;5.30;3.97;;;;;;;14.86;71.05;102047.63;3561225;40;20236;-80
2021/07/20 00:42:59;;;;;;;6.33;3.90;;;;;;;14.82;71.35;102046.72;3561536;40;20666;-79
2021/07/20 00:45:25;;;;;;;6.87;3.50;;;;;;;14.76;71.40;102046.59;3551247;40;20240;-79
2021/07/20 00:47:50;;;;;;;7.97;4.53;;;;;;;14.76;71.31;102045.69;3561311;40;20631;-79
2021/07/20 00:50:22;;;;;;;5.97;3.40;;;;;;;14.72;71.42;102042.19;3562153;40;20231;-79
2021/07/20 00:52:47;;;;;;;5.93;4.03;;;;;;;14.76;71.19;102040.53;3569979;40;20262;-78
2021/07/20 00:55:13;;;;;;;7.73;4.10;;;;;;;14.77;71.10;102034.53;3570931;40;20236;-79
2021/07/20 00:57:41;;;;;;;6.27;3.63;;;;;;;14.88;71.55;102033.94;3570729;40;20230;-79
2021/07/20 01:00:10;;;;;;;5.97;4.25;;;;;;;14.82;71.19;102035.53;3570887;40;20230;-79
2021/07/20 01:02:36;;;;;;;5.57;3.87;;;;;;;14.79;71.02;102027.72;3559991;40;20305;-80
2021/07/20 01:05:07;;;;;;;4.87;3.70;;;;;;;14.87;71.83;102028.75;3566011;40;20629;-79
2021/07/20 01:07:35;;;;;;;5.60;3.20;;;;;;;14.82;71.74;102031.22;3562231;40;20231;-79
2021/07/20 01:10:04;;;;;;;5.90;4.10;;;;;;;14.82;71.56;102028.66;3571052;40;20233;-79
2021/07/20 01:12:33;;;;;;;4.77;4.23;;;;;;;14.80;71.92;102025.19;3570759;40;20235;-80
2021/07/20 01:15:02;;;;;;;3.57;3.00;;;;;;;14.75;71.50;102028.50;3571355;40;20699;-80
2021/07/20 01:17:29;;;;;;;5.30;4.07;;;;;;;14.73;71.85;102032.75;3563327;40;20234;-80
2021/07/20 01:19:54;;;;;;;6.63;4.20;;;;;;;14.73;71.35;102030.19;3554415;40;20348;-80
2021/07/20 01:22:29;;;;;;;8.83;4.20;;;;;;;14.77;71.78;102034.53;3571129;40;20253;-80
2021/07/20 01:24:57;;;;;;;7.47;4.37;;;;;;;14.77;71.28;102031.97;3570830;40;20317;-80
2021/07/20 01:27:23;;;;;;;4.20;3.80;;;;;;;14.75;71.23;102024.22;3570589;40;20239;-79
2021/07/20 01:29:50;;;;;;;5.30;4.00;;;;;;;14.68;71.82;102034.38;3570806;40;20241;-79
2021/07/20 01:32:17;;;;;;;5.10;3.73;;;;;;;14.65;71.95;102039.44;3568577;40;20250;-79
2021/07/20 01:34:44;;;;;;;6.60;4.77;;;;;;;14.56;71.93;102034.09;3569218;40;20465;-79
2021/07/20 01:37:12;;;;;;;8.43;5.20;;;;;;;14.50;72.25;102031.38;3565976;40;20324;-78
2021/07/20 01:39:40;;;;;;;8.27;4.47;;;;;;;14.52;72.57;102032.28;3580383;40;20221;-79
2021/07/20 01:42:06;;;;;;;5.47;4.37;;;;;;;14.52;72.26;102032.28;3580481;40;20226;-79
2021/07/20 01:44:31;;;;;;;6.33;5.40;;;;;;;14.48;72.84;102041.66;3570764;40;20977;-79
2021/07/20 01:46:57;;;;;;;6.93;4.67;;;;;;;14.51;72.38;102036.53;3570706;40;20628;-79
2021/07/20 01:49:25;;;;;;;8.23;5.10;;;;;;;14.52;72.31;102034.84;3561395;40;20517;-79
2021/07/20 01:51:51;;;;;;;6.10;4.57;;;;;;;14.50;72.53;102031.38;3570536;40;20246;-78
2021/07/20 01:54:16;;;;;;;10.07;5.10;;;;;;;14.51;72.74;102030.53;3570615;40;20692;-78
2021/07/20 01:56:42;;;;;;;7.73;4.30;;;;;;;14.50;72.36;102028.81;3563273;40;20236;-79
2021/07/20 01:59:10;;;;;;;7.70;4.80;;;;;;;14.60;72.54;102021.28;3568810;40;20532;-79
2021/07/20 02:01:45;;;;;;;7.60;4.73;;;;;;;14.62;72.38;102032.53;3569527;40;20245;-78
2021/07/20 02:04:25;;;;;;;6.10;4.20;;;;;;;14.62;71.90;102027.38;3570069;40;20261;-78
2021/07/20 02:09:38;;;;;;;8.03;4.53;;;;;;;14.56;72.46;102024.66;3569906;40;20245;-79
2021/07/20 02:12:18;;;;;;;7.70;4.80;;;;;;;14.49;72.41;102030.50;3569605;40;20577;-79
2021/07/20 02:14:47;;;;;;;7.97;4.53;;;;;;;14.56;72.81;102026.34;3569754;40;20230;-79
2021/07/20 02:17:13;;;;;;;9.87;5.27;;;;;;;14.51;72.25;102031.38;3569677;40;20309;-78
2021/07/20 02:19:51;;;;;;;6.70;4.43;;;;;;;14.55;72.48;102024.63;3570220;40;20640;-79
2021/07/20 02:22:22;;;;;;;7.60;4.50;;;;;;;14.49;73.26;102021.88;3569823;40;20245;-79
2021/07/20 02:24:50;;;;;;;7.50;4.47;;;;;;;14.45;73.17;102022.69;3570115;40;20226;-79
2021/07/20 02:27:19;;;;;;;7.30;5.33;;;;;;;14.41;73.39;102024.28;3561086;40;20616;-79
2021/07/20 02:29:44;;;;;;;8.90;5.30;;;;;;;14.48;73.51;102030.47;3569058;40;20231;-79
2021/07/20 02:32:11;;;;;;;8.53;4.40;;;;;;;14.51;73.32;102027.97;3569980;40;20273;-79
2021/07/20 02:34:38;;;;;;;6.17;4.20;;;;;;;14.49;73.64;102022.75;3569581;40;20242;-79
2021/07/20 02:37:04;;;;;;;5.97;4.50;;;;;;;14.50;73.58;102029.66;3565345;40;20234;-79
2021/07/20 02:39:31;;;;;;;7.60;4.90;;;;;;;14.50;73.23;102033.97;3578995;40;20265;-79
2021/07/20 02:41:57;;;;;;;5.25;4.40;;;;;;;14.46;72.96;102030.41;3569537;40;20552;-79
2021/07/20 02:44:24;;;;;;;6.47;3.93;;;;;;;14.47;72.88;102036.47;3567478;40;20238;-78
2021/07/20 02:46:50;;;;;;;8.37;4.67;;;;;;;14.57;72.51;102030.66;3560702;40;20243;-79
2021/07/20 02:49:16;;;;;;;8.10;4.50;;;;;;;14.51;72.92;102028.81;3552272;40;20250;-79
2021/07/20 02:51:44;;;;;;;7.03;5.00;;;;;;;14.43;73.01;102032.94;3562055;40;20227;-79
2021/07/20 02:54:10;;;;;;;4.27;3.60;;;;;;;14.39;73.10;102033.72;3551992;40;20259;-79
2021/07/20 02:56:36;;;;;;;8.13;4.97;;;;;;;14.36;73.23;102031.06;3567734;40;20242;-79
2021/07/20 02:59:04;;;;;;;7.77;4.23;;;;;;;14.34;73.22;102029.28;3564103;40;20300;-79
2021/07/20 03:01:33;;;;;;;6.77;5.23;;;;;;;14.33;73.81;102022.38;3561236;40;20662;-79
2021/07/20 03:03:58;;;;;;;7.33;4.53;;;;;;;14.36;73.39;102030.19;3561160;40;20320;-78
2021/07/20 03:06:27;;;;;;;7.53;4.67;;;;;;;14.30;73.38;102024.88;3569276;40;20480;-78
2021/07/20 03:08:58;;;;;;;8.07;4.70;;;;;;;14.31;74.09;102035.22;3578498;40;20245;-79
2021/07/20 03:11:27;;;;;;;6.70;5.40;;;;;;;14.27;73.75;102035.13;3571896;40;20304;-79
2021/07/20 03:13:56;;;;;;;6.43;4.17;;;;;;;14.18;73.73;102035.72;3563184;40;20510;-79
2021/07/20 03:16:22;;;;;;;8.60;5.73;;;;;;;14.18;73.87;102040.03;3561054;40;20229;-78
2021/07/20 03:18:50;;;;;;;7.67;4.60;;;;;;;14.15;73.90;102037.38;3564155;40;20231;-78
2021/07/20 03:21:15;;;;;;;6.83;4.53;;;;;;;14.09;74.08;102040.66;3561148;40;20224;-78
2021/07/20 03:23:42;;;;;;;8.80;5.73;;;;;;;14.01;73.98;102043.91;3563141;40;20234;-79
2021/07/20 03:26:08;;;;;;;5.30;3.87;;;;;;;14.03;74.30;102043.09;3568498;40;20608;-79
2021/07/20 03:28:35;;;;;;;8.13;5.17;;;;;;;14.08;74.49;102046.66;3551744;40;20383;-78
2021/07/20 03:31:02;;;;;;;6.83;5.40;;;;;;;14.06;74.59;102050.03;3567580;40;20246;-78
2021/07/20 03:33:31;;;;;;;9.00;5.33;;;;;;;14.05;74.44;102049.16;3561855;40;20301;-79
2021/07/20 03:35:57;;;;;;;6.13;5.00;;;;;;;14.06;74.50;102043.19;3571218;40;20263;-78
2021/07/20 03:38:23;;;;;;;8.37;4.77;;;;;;;14.11;73.92;102039.00;3570454;40;20230;-78
2021/07/20 03:40:51;;;;;;;7.57;5.03;;;;;;;14.18;74.49;102040.03;3570480;40;20285;-79
2021/07/20 03:43:22;;;;;;;9.87;5.10;;;;;;;14.18;74.31;102040.03;3570793;40;20278;-78
2021/07/20 03:45:48;;;;;;;6.33;4.63;;;;;;;14.19;74.39;102039.19;3570837;40;20412;-79
2021/07/20 03:48:14;;;;;;;6.77;4.50;;;;;;;14.28;73.83;102044.59;3571676;40;20327;-79
2021/07/20 03:50:41;;;;;;;10.43;6.03;;;;;;;14.29;74.51;102054.06;3569610;40;20234;-79
2021/07/20 03:53:07;;;;;;;9.77;5.33;;;;;;;14.33;74.04;102050.72;3572922;40;20238;-78
2021/07/20 03:55:35;;;;;;;8.57;5.20;;;;;;;14.34;74.15;102053.34;3568608;40;20229;-79
2021/07/20 03:58:00;;;;;;;6.93;4.97;;;;;;;14.42;73.64;102050.94;3569840;40;20226;-79
2021/07/20 04:00:26;;;;;;;7.00;4.63;;;;;;;14.43;74.00;102052.69;3557424;40;20227;-79
2021/07/20 04:03:20;;;;;;;9.30;5.33;;;;;;;14.42;73.71;102049.25;3568025;40;20251;-78
2021/07/20 04:05:39;;;;;;;6.23;4.77;;;;;;;14.43;74.23;102052.69;3571175;40;20230;-79
2021/07/20 04:08:10;;;;;;;10.40;6.03;;;;;;;14.40;74.29;102050.91;3561153;40;20231;-79
2021/07/20 04:10:35;;;;;;;8.63;5.40;;;;;;;14.51;74.16;102062.31;3560866;40;20274;-78
2021/07/20 04:13:01;;;;;;;7.90;5.10;;;;;;;14.46;74.22;102063.06;3561100;40;20250;-79
2021/07/20 04:15:26;;;;;;;6.43;4.63;;;;;;;14.46;74.49;102061.34;3565340;40;20223;-79
2021/07/20 04:17:52;;;;;;;8.53;4.43;;;;;;;14.51;74.50;102059.75;3554740;40;20223;-78
2021/07/20 04:20:17;;;;;;;5.50;4.83;;;;;;;14.55;74.43;102052.97;3564122;40;20238;-79
2021/07/20 04:22:43;;;;;;;8.70;4.83;;;;;;;14.60;74.37;102066.84;3570658;40;20328;-79
2021/07/20 04:25:11;;;;;;;6.43;3.97;;;;;;;14.64;74.04;102066.94;3571194;40;20511;-79
2021/07/20 04:27:38;;;;;;;7.10;4.67;;;;;;;14.71;73.77;102067.94;3564094;40;20494;-78
2021/07/20 04:30:06;;;;;;;7.10;4.73;;;;;;;14.76;73.86;102061.16;3560651;40;20609;-79
2021/07/20 04:32:32;;;;;;;8.37;4.17;;;;;;;14.81;73.79;102063.03;3561591;40;20250;-79
2021/07/20 04:34:57;;;;;;;5.63;4.07;;;;;;;14.90;73.58;102067.50;3555369;40;20222;-79
2021/07/20 04:37:26;;;;;;;5.60;4.07;;;;;;;14.90;73.53;102070.97;3571058;40;20234;-79
2021/07/20 04:39:53;;;;;;;5.57;4.47;;;;;;;14.92;73.13;102078.75;3570172;40;20588;-79
2021/07/20 04:42:18;;;;;;;7.80;4.63;;;;;;;15.01;72.83;102074.63;3570871;40;20300;-79
2021/07/20 04:44:43;;;;;;;4.80;4.30;;;;;;;15.09;73.05;102073.09;3570398;40;20251;-79
2021/07/20 04:47:09;;;;;;;6.37;4.10;;;;;;;15.18;72.10;102074.97;3571382;40;20317;-79
2021/07/20 04:49:35;;;;;;;5.83;4.10;;;;;;;15.18;72.35;102077.56;3570681;40;20227;-79
2021/07/20 04:52:01;;;;;;;6.23;3.63;;;;;;;15.20;71.75;102081.91;3562184;40;20227;-79
2021/07/20 04:54:28;;;;;;;7.33;4.47;;;;;;;15.28;71.73;102079.50;3552002;40;20224;-79
2021/07/20 04:56:53;;;;;;;7.20;4.67;;;;;;;15.40;70.76;102085.81;3561122;40;20235;-79
2021/07/20 04:59:19;;;;;;;9.23;4.93;;;;;;;15.62;70.34;102094.84;3553264;40;20238;-79
2021/07/20 05:01:45;;;;;;;6.97;4.50;;;;;;;15.49;70.42;102086.00;3571190;40;20234;-79
2021/07/20 05:04:11;;;;;;;4.53;3.70;;;;;;;15.48;71.02;102088.53;3571330;40;20528;-79
2021/07/20 05:06:38;;;;;;;5.00;3.73;;;;;;;15.45;71.05;102088.47;3570807;40;20514;-79
2021/07/20 05:09:05;;;;;;;6.50;4.07;;;;;;;15.55;70.33;102082.63;3571158;40;20422;-78
2021/07/20 05:11:31;;;;;;;6.60;4.07;;;;;;;15.58;70.48;102090.44;3558041;40;20248;-79
2021/07/20 05:13:57;;;;;;;7.67;4.23;;;;;;;15.74;70.59;102087.34;3566546;40;20245;-79
2021/07/20 05:16:23;;;;;;;7.87;4.00;;;;;;;15.89;69.83;102091.03;3556431;40;20231;-79
2021/07/20 05:18:48;;;;;;;7.00;4.17;;;;;;;15.81;70.13;102095.22;3564262;40;20328;-80
2021/07/20 05:21:16;;;;;;;8.33;4.30;;;;;;;15.79;70.15;102098.63;3551786;40;20230;-80
2021/07/20 05:23:42;;;;;;;5.27;3.10;;;;;;;15.76;70.34;102101.13;3561341;40;20310;-79
2021/07/20 05:26:07;;;;;;;4.20;3.13;;;;;;;15.80;70.61;102103.78;3556940;40;20239;-78
2021/07/20 05:28:35;;;;;;;5.03;3.77;;;;;;;15.89;70.17;102098.78;3552386;40;20239;-79
2021/07/20 05:31:02;;;;;;;7.27;4.10;;;;;;;15.93;69.71;102099.72;3564149;40;20650;-79
2021/07/20 05:33:29;;;;;;;5.03;3.33;;;;;;;15.95;70.10;102098.91;3561744;40;20723;-78
2021/07/20 05:36:01;;;;;;;7.00;4.20;;;;;;;15.99;70.41;102097.25;3570985;40;20238;-79
2021/07/20 05:38:28;;;;;;;7.77;3.90;;;;;;;16.05;70.60;102097.34;3561792;40;20234;-79
2021/07/20 05:40:56;;;;;;;8.83;4.13;;;;;;;16.11;70.00;102097.47;3570596;40;20292;-79
2021/07/20 05:43:22;;;;;;;5.37;3.77;;;;;;;16.10;70.18;102096.59;3570253;40;20234;-79
2021/07/20 05:45:48;;;;;;;5.67;4.00;;;;;;;16.16;70.21;102096.69;3561335;40;20251;-78
2021/07/20 05:48:19;;;;;;;4.67;3.43;;;;;;;16.16;69.75;102101.00;3561944;40;20245;-79
2021/07/20 05:50:51;;;;;;;5.73;3.70;;;;;;;16.22;69.54;102094.22;3571111;40;20562;-80
2021/07/20 05:53:22;;;;;;;7.13;4.07;;;;;;;16.21;69.79;102095.03;3560697;40;20272;-79
2021/07/20 05:55:56;;;;;;;7.90;3.67;;;;;;;16.31;69.03;102096.94;3570428;40;20229;-79
2021/07/20 05:58:22;;;;;;;4.93;3.67;;;;;;;16.27;69.30;102097.75;3570511;40;20239;-79
2021/07/20 06:00:51;;;;;;;4.90;3.40;;;;;;;16.26;69.72;102100.31;3570555;40;20231;-78
2021/07/20 06:03:18;;;;;;;6.33;4.47;;;;;;;16.35;69.47;102100.47;3570901;40;20628;-79
2021/07/20 06:05:44;;;;;;;6.63;3.90;;;;;;;16.42;69.07;102094.56;3561664;40;20287;-79
2021/07/20 06:08:19;;;;;;;5.17;3.80;;;;;;;16.46;68.69;102094.66;3564111;40;20226;-79
2021/07/20 06:10:47;;;;;;;7.25;4.70;;;;;;;16.49;68.61;102091.22;3571878;40;20236;-78
2021/07/20 06:13:14;;;;;;;5.10;2.50;;;;;;;16.52;68.46;102086.97;3570705;40;20629;-78
2021/07/20 06:15:42;;;;;;;7.67;4.17;;;;;;;16.77;67.67;102093.38;3573159;40;20226;-78
2021/07/20 06:18:07;;;;;;;5.40;3.90;;;;;;;16.68;67.28;102091.53;3569758;40;20508;-78
2021/07/20 06:20:34;;;;;;;10.70;4.50;;;;;;;16.89;66.82;102085.75;3560162;40;20226;-79
2021/07/20 06:23:00;;;;;;;7.77;4.33;;;;;;;16.99;66.35;102085.91;3570805;40;20250;-78
2021/07/20 06:25:25;;;;;;;7.10;4.30;;;;;;;17.14;65.49;102091.28;3571566;40;20210;-78
2021/07/20 06:27:52;;;;;;;8.93;4.27;;;;;;;17.22;65.72;102091.41;3571601;40;20234;-78
2021/07/20 06:30:19;;;;;;;5.77;4.00;;;;;;;17.38;64.23;102093.31;3575989;40;20344;-79
2021/07/20 06:32:45;;;;;;;7.93;3.97;;;;;;;17.16;65.30;102092.19;3571293;40;20242;-78
2021/07/20 06:35:15;;;;;;;6.30;3.40;;;;;;;17.19;64.88;102096.53;3579725;40;20233;-79
2021/07/20 06:37:44;;;;;;;5.33;3.20;;;;;;;17.11;64.99;102099.03;3578397;40;20572;-79
2021/07/20 06:40:13;;;;;;;5.53;3.17;;;;;;;17.11;63.94;102091.28;3571705;40;22474;-79
2021/07/20 06:42:40;;;;;;;6.77;3.00;;;;;;;17.12;64.14;102098.19;3567974;40;20649;-79
2021/07/20 06:45:06;;;;;;;4.90;3.00;;;;;;;17.18;64.12;102106.00;3577835;40;20222;-79
2021/07/20 06:47:37;;;;;;;6.33;3.37;;;;;;;17.34;62.91;102096.72;3581296;40;20221;-79
2021/07/20 06:50:04;;;;;;;8.07;3.57;;;;;;;17.43;62.49;102099.44;3578002;40;20238;-80
2021/07/20 06:52:30;;;;;;;9.00;3.80;;;;;;;17.55;62.32;102100.44;3582506;40;20308;-79
2021/07/20 06:54:55;;;;;;;8.37;4.80;;;;;;;17.80;60.73;102092.09;3581688;40;20225;-78
2021/07/20 06:57:23;;;;;;;10.17;5.50;;;;;;;17.74;61.22;102096.34;3581470;40;20608;-79
2021/07/20 06:59:50;;;;;;;7.50;5.20;;;;;;;17.76;61.37;102099.81;3562688;40;20230;-79
2021/07/20 07:02:20;;;;;;;7.67;4.73;;;;;;;17.86;61.56;102105.13;3576489;40;20621;-78
2021/07/20 07:05:12;;;;;;;7.10;4.13;;;;;;;18.00;61.31;102098.34;3566226;40;20233;-78
2021/07/20 07:07:38;;;;;;;5.63;3.00;;;;;;;18.09;60.49;102101.03;3571217;40;20331;-79
2021/07/20 07:10:05;;;;;;;4.47;3.10;;;;;;;18.19;59.71;102094.19;3580576;40;20634;-79
2021/07/20 07:12:32;;;;;;;5.50;3.10;;;;;;;18.42;59.05;102098.72;3567088;40;20513;-79
2021/07/20 07:15:01;;;;;;;6.27;2.43;;;;;;;18.38;59.68;102101.31;3571945;40;20278;-79
2021/07/20 07:17:27;;;;;;;6.37;2.67;;;;;;;18.29;60.35;102099.44;3576695;40;20233;-80
2021/07/20 07:19:53;;;;;;;4.27;2.40;;;;;;;18.31;60.63;102102.06;3577161;40;20230;-78
2021/07/20 07:22:22;;;;;;;5.13;2.50;;;;;;;18.42;58.67;102090.09;3564328;40;20269;-79
2021/07/20 07:24:49;;;;;;;6.20;3.00;;;;;;;18.75;57.65;102103.31;3577026;40;20320;-79
2021/07/20 07:27:16;;;;;;;4.67;3.03;;;;;;;18.85;57.00;102098.19;3572209;40;20242;-79
2021/07/20 07:29:42;;;;;;;5.90;3.30;;;;;;;19.05;56.27;102101.75;3562634;40;20254;-78
2021/07/20 07:32:08;;;;;;;6.63;3.67;;;;;;;19.26;55.65;102101.84;3579121;40;20250;-80
2021/07/20 07:34:35;;;;;;;6.73;3.43;;;;;;;19.28;55.72;102099.28;3570327;40;20806;-78
2021/07/20 07:37:02;;;;;;;8.68;3.88;;;;;;;19.45;55.04;102103.69;3562485;40;20233;-79
2021/07/20 07:39:27;;;;;;;6.97;3.63;;;;;;;19.48;54.24;102101.09;3571264;40;20230;-80
2021/07/20 07:41:54;;;;;;;6.37;4.00;;;;;;;19.44;55.00;102101.09;3576538;40;20688;-79
2021/07/20 07:44:20;;;;;;;7.03;4.07;;;;;;;19.46;55.42;102105.44;3583740;40;20273;-79
2021/07/20 07:46:48;;;;;;;4.30;3.53;;;;;;;19.51;54.36;102103.69;3580351;40;20338;-79
2021/07/20 07:49:15;;;;;;;6.33;4.13;;;;;;;19.53;53.57;102106.31;3571530;40;20252;-79
2021/07/20 07:51:43;;;;;;;5.83;3.90;;;;;;;19.76;52.92;102107.25;3581357;40;20218;-79
2021/07/20 07:54:09;;;;;;;6.37;4.43;;;;;;;19.83;52.94;102093.38;3581397;40;20242;-80
2021/07/20 07:56:36;;;;;;;6.23;4.17;;;;;;;19.78;54.86;102095.09;3572945;40;20230;-80
2021/07/20 07:59:02;;;;;;;5.00;4.10;;;;;;;19.90;52.93;102092.53;3572312;40;20230;-80
2021/07/20 08:01:30;;;;;;;6.40;4.07;;;;;;;20.00;52.19;102096.88;3580770;40;20525;-79
2021/07/20 08:03:57;;;;;;;6.35;4.72;;;;;;;19.96;52.99;102097.72;3571554;40;20246;-79
2021/07/20 08:06:25;;;;;;;7.27;4.40;;;;;;;20.17;51.67;102097.81;3568764;40;20254;-79
2021/07/20 08:08:55;;;;;;;7.33;4.97;;;;;;;20.11;52.03;102102.97;3566621;40;20319;-79
2021/07/20 08:11:22;;;;;;;7.33;4.87;;;;;;;20.08;51.41;102095.19;3570686;40;20540;-80
2021/07/20 08:13:48;;;;;;;6.87;5.00;;;;;;;20.25;51.08;102094.31;3572286;40;20619;-80
2021/07/20 08:16:14;;;;;;;8.37;5.20;;;;;;;20.28;51.44;102090.84;3581318;40;20299;-79
2021/07/20 08:18:40;;;;;;;9.33;5.67;;;;;;;20.20;52.40;102098.66;3572411;40;20238;-79
2021/07/20 08:21:07;;;;;;;8.17;5.10;;;;;;;20.45;50.12;102089.97;3563109;40;20681;-80
2021/07/20 08:23:34;;;;;;;8.70;5.17;;;;;;;20.30;50.89;102089.09;3571699;40;20242;-80
2021/07/20 08:26:10;;;;;;;7.67;5.47;;;;;;;20.16;51.76;102094.31;3571698;40;20231;-80
2021/07/20 08:28:53;;;;;;;9.60;5.57;;;;;;;20.31;50.47;102086.50;3571929;40;20230;-80
2021/07/20 08:31:20;;;;;;;7.23;5.37;;;;;;;20.45;50.88;102087.34;3562238;40;20324;-80
2021/07/20 08:33:48;;;;;;;10.20;5.43;;;;;;;20.72;51.24;102087.31;3571807;40;20273;-80
2021/07/20 08:36:15;;;;;;;6.47;4.70;;;;;;;20.79;51.50;102083.84;3571269;40;20254;-79
2021/07/20 08:38:44;;;;;;;6.13;4.93;;;;;;;20.78;50.84;102089.06;3571960;40;20691;-80
2021/07/20 08:41:20;;;;;;;7.93;5.53;;;;;;;20.91;50.40;102077.78;3562243;40;20597;-82
2021/07/20 08:44:16;;;;;;;7.67;5.77;;;;;;;21.20;48.72;102088.94;3562453;40;20262;-78
2021/07/20 08:47:00;;;;;;;8.23;5.87;;;;;;;21.12;49.90;102083.78;3571715;40;20258;-79
2021/07/20 08:49:40;;;;;;;7.67;5.40;;;;;;;21.33;50.19;102088.03;3561940;40;20246;-79
2021/07/20 08:52:20;;;;;;;8.47;6.60;;;;;;;21.55;49.68;102085.28;3571470;40;20227;-79
2021/07/20 08:54:54;;;;;;;8.87;6.30;;;;;;;21.68;47.44;102071.31;3571542;40;20226;-79
2021/07/20 08:57:27;;;;;;;10.67;6.23;;;;;;;21.84;47.36;102086.00;3571689;40;20235;-79
2021/07/20 09:00:06;;;;;;;8.00;5.80;;;;;;;21.93;47.72;102082.50;3561877;40;20254;-80
2021/07/20 09:02:41;;;;;;;7.17;5.63;;;;;;;22.23;45.26;102077.00;3571512;40;20238;-79
2021/07/20 09:05:12;;;;;;;7.53;5.70;;;;;;;22.36;46.38;102083.88;3552054;40;20246;-80
2021/07/20 09:07:40;;;;;;;8.10;5.20;;;;;;;22.30;46.17;102083.94;3573632;40;20252;-79
2021/07/20 09:10:11;;;;;;;7.23;5.07;;;;;;;22.39;45.37;102089.91;3574650;40;20237;-80
2021/07/20 09:12:38;;;;;;;7.13;4.57;;;;;;;22.37;45.54;102076.91;3571378;40;20635;-79
2021/07/20 09:15:11;;;;;;;7.97;5.27;;;;;;;22.33;46.04;102078.66;3581299;40;20513;-79
2021/07/20 09:17:45;;;;;;;7.07;4.80;;;;;;;22.44;46.75;102074.22;3580941;40;20464;-79
2021/07/20 09:20:17;;;;;;;7.10;5.70;;;;;;;22.73;45.72;102071.34;3575674;40;20234;-80
2021/07/20 09:23:07;;;;;;;8.93;5.40;;;;;;;22.66;45.67;102077.53;3571200;40;20306;-80
2021/07/20 09:25:36;;;;;;;6.57;5.13;;;;;;;22.41;46.94;102076.84;3571315;40;20231;-79
2021/07/20 09:28:23;;;;;;;6.33;5.20;;;;;;;22.46;46.31;102084.69;3571052;40;20304;-79
2021/07/20 09:30:51;;;;;;;7.60;5.03;;;;;;;22.43;45.82;102090.78;3571278;40;20609;-79
2021/07/20 09:33:38;;;;;;;7.43;5.10;;;;;;;22.50;44.85;102082.03;3571407;40;20250;-79
2021/07/20 09:36:35;;;;;;;6.20;4.90;;;;;;;22.49;45.15;102080.31;3561555;40;20271;-80
2021/07/20 09:39:30;;;;;;;8.13;5.80;;;;;;;22.70;44.79;102081.84;3571066;40;20222;-80
2021/07/20 09:42:06;;;;;;;8.65;6.00;;;;;;;22.87;43.88;102082.50;3571431;40;20237;-79
2021/07/20 09:44:50;;;;;;;7.20;5.53;;;;;;;23.12;42.99;102083.97;3569587;40;20245;-80
2021/07/20 09:47:22;;;;;;;10.67;5.40;;;;;;;23.49;41.39;102083.53;3570260;40;20230;-80
2021/07/20 09:49:59;;;;;;;7.10;5.40;;;;;;;23.58;42.24;102088.59;3569693;40;20230;-79
2021/07/20 09:52:42;;;;;;;7.50;5.00;;;;;;;23.72;41.81;102088.41;3579957;40;20555;-80
2021/07/20 09:55:38;;;;;;;7.13;4.90;;;;;;;23.95;41.25;102088.97;3580569;40;20233;-80
2021/07/20 09:58:41;;;;;;;8.03;5.70;;;;;;;24.16;43.15;102083.38;3574668;40;20278;-79
2021/07/20 10:01:20;;;;;;;7.20;5.22;;;;;;;24.45;39.93;102074.13;3573680;40;20699;-79
2021/07/20 10:04:26;;;;;;;6.38;5.15;;;;;;;24.53;39.38;102085.34;3579794;40;20253;-78
2021/07/20 10:07:02;;;;;;;7.68;5.97;;;;;;;24.24;40.98;102082.38;3576656;40;20321;-80
2021/07/20 10:09:33;;;;;;;8.68;5.35;;;;;;;24.00;42.11;102084.53;3572373;40;20308;-81
2021/07/20 10:12:10;;;;;;;9.25;6.22;;;;;;;23.99;41.68;102086.28;3566942;40;20584;-80
2021/07/20 10:15:06;;;;;;;6.57;5.50;;;;;;;23.93;41.39;102085.50;3572616;40;20230;-79
2021/07/20 10:17:51;;;;;;;8.57;5.65;;;;;;;23.73;41.08;102084.91;3575423;40;20230;-80
2021/07/20 10:20:25;;;;;;;6.50;5.35;;;;;;;23.67;40.67;102085.00;3571835;40;20290;-80
2021/07/20 10:23:19;;;;;;;6.63;5.53;;;;;;;23.36;41.68;102087.19;3575775;40;20288;-80
2021/07/20 10:25:59;;;;;;;7.15;5.75;;;;;;;23.25;43.23;102077.75;3581389;40;20255;-80
2021/07/20 10:28:41;;;;;;;7.57;5.57;;;;;;;23.28;42.94;102083.78;3576291;40;20226;-81
2021/07/20 10:31:15;;;;;;;6.00;5.23;;;;;;;23.45;42.50;102080.94;3567663;40;20234;-81
2021/07/20 10:33:44;;;;;;;6.93;5.60;;;;;;;23.64;41.82;102091.16;3580734;40;20246;-80
2021/07/20 10:36:16;;;;;;;5.63;5.00;;;;;;;23.66;41.72;102085.91;3572187;40;20520;-80
2021/07/20 10:39:07;;;;;;;8.43;5.33;;;;;;;23.82;41.20;102087.38;3571638;40;20238;-81
2021/07/20 10:41:52;;;;;;;7.18;4.75;;;;;;;23.65;42.30;102077.19;3571953;40;20637;-79
2021/07/20 10:44:52;;;;;;;6.15;4.78;;;;;;;23.83;41.80;102081.25;3571408;40;20246;-81
2021/07/20 10:47:20;;;;;;;7.15;5.07;;;;;;;23.93;39.61;102070.66;3553747;40;20252;-78
2021/07/20 10:49:53;;;;;;;6.68;5.13;;;;;;;23.60;41.20;102060.69;3562354;40;20275;-80
2021/07/20 10:52:52;;;;;;;6.77;5.40;;;;;;;23.54;41.58;102068.63;3571454;40;20260;-80
2021/07/20 10:55:35;;;;;;;5.78;4.45;;;;;;;23.79;41.53;102058.63;3562398;40;20326;-79
2021/07/20 10:58:39;;;;;;;6.07;5.43;;;;;;;23.98;41.30;102061.00;3571104;40;20238;-81
2021/07/20 11:01:12;;;;;;;6.35;5.20;;;;;;;24.06;41.22;102050.38;3556180;40;20274;-80
2021/07/20 11:03:52;;;;;;;7.80;5.90;;;;;;;24.30;39.54;102050.84;3576414;40;20263;-80
2021/07/20 11:06:20;;;;;;;7.40;5.40;;;;;;;24.46;40.24;102049.69;3581306;40;20229;-80
2021/07/20 11:08:50;;;;;;;7.43;5.47;;;;;;;24.59;41.92;102045.09;3573980;40;20354;-80
2021/07/20 11:11:24;;;;;;;6.60;4.93;;;;;;;24.89;40.06;102042.75;3573166;40;20219;-81
2021/07/20 11:13:52;;;;;;;6.25;5.35;;;;;;;25.10;39.16;102034.44;3573087;40;20445;-80
2021/07/20 11:16:20;;;;;;;11.38;6.05;;;;;;;25.26;38.12;102046.38;3575186;40;20218;-80
2021/07/20 11:18:48;;;;;;;7.07;5.22;;;;;;;24.85;39.43;102042.84;3577412;40;20905;-80
2021/07/20 11:21:17;;;;;;;7.20;5.97;;;;;;;24.34;40.93;102044.66;3573269;40;20509;-80
2021/07/20 11:23:45;;;;;;;6.47;4.80;;;;;;;24.20;40.14;102045.78;3563810;40;20257;-80
2021/07/20 11:26:15;;;;;;;8.70;7.75;;;;;;;23.89;41.50;102050.63;3572896;40;20839;-80
2021/07/20 11:28:44;;;;;;;8.63;7.80;;;;;;;23.71;41.14;102048.28;3563427;40;20270;-81
2021/07/20 11:31:15;;;;;;;6.68;5.35;;;;;;;23.79;41.50;102045.56;3563521;40;20238;-80
2021/07/20 11:33:45;;;;;;;6.30;5.10;;;;;;;23.84;41.70;102036.75;3563776;40;20252;-81
2021/07/20 11:36:15;;;;;;;8.20;5.70;;;;;;;24.11;40.77;102036.34;3563782;40;20378;-81
2021/07/20 11:38:44;;;;;;;7.57;5.55;;;;;;;24.08;40.92;102033.75;3565646;40;20505;-80
2021/07/20 11:41:33;;;;;;;7.38;5.47;;;;;;;24.13;40.70;102033.69;3564281;40;20469;-81